createdAt,value
2017-06-05T00:00:32.693Z,15.90
2017-06-05T00:03:16.977Z,15.80
2017-06-05T00:06:01.401Z,15.80
2017-06-05T00:08:45.347Z,15.80
2017-06-05T00:11:30.080Z,15.80
2017-06-05T00:14:11.965Z,15.90
2017-06-05T00:16:56.576Z,15.90
2017-06-05T00:19:40.515Z,15.90
2017-06-05T00:22:24.628Z,15.90
2017-06-05T00:25:06.833Z,15.90
2017-06-05T00:27:50.661Z,15.90
2017-06-05T00:30:34.465Z,15.90
2017-06-05T00:33:18.529Z,15.90
2017-06-05T00:36:02.472Z,16.00
2017-06-05T00:38:46.611Z,16.00
2017-06-05T00:41:32.933Z,16.00
2017-06-05T00:44:17.245Z,16.00
2017-06-05T00:47:09.588Z,16.00
2017-06-05T00:49:54.045Z,16.00
2017-06-05T00:52:38.178Z,16.00
2017-06-05T00:55:22.544Z,16.00
2017-06-05T00:58:07.077Z,16.00
2017-06-05T01:03:33.292Z,15.90
2017-06-05T01:06:07.420Z,15.80
2017-06-05T01:08:40.717Z,15.80
2017-06-05T01:11:14.732Z,15.80
2017-06-05T01:13:45.205Z,15.70
2017-06-05T01:16:19.176Z,15.70
2017-06-05T01:18:50.356Z,15.70
2017-06-05T01:21:23.984Z,15.70
2017-06-05T01:23:58.102Z,15.70
2017-06-05T01:26:32.056Z,15.70
2017-06-05T01:29:05.779Z,15.70
2017-06-05T01:31:39.115Z,15.70
2017-06-05T01:34:13.025Z,15.70
2017-06-05T01:36:46.863Z,15.60
2017-06-05T01:39:20.768Z,15.60
2017-06-05T01:41:54.789Z,15.60
2017-06-05T01:44:28.892Z,15.70
2017-06-05T01:47:02.931Z,15.60
2017-06-05T01:49:36.981Z,15.60
2017-06-05T01:52:11.131Z,15.60
2017-06-05T01:54:48.640Z,15.60
2017-06-05T01:57:22.370Z,15.60
2017-06-05T01:59:52.857Z,15.60
2017-06-05T02:02:23.972Z,15.60
2017-06-05T02:04:57.676Z,15.50
2017-06-05T02:07:31.812Z,15.40
2017-06-05T02:10:05.916Z,15.40
2017-06-05T02:12:40.053Z,15.40
2017-06-05T02:15:14.056Z,15.40
2017-06-05T02:17:47.872Z,15.20
2017-06-05T02:20:21.112Z,15.10
2017-06-05T02:22:52.634Z,15.10
2017-06-05T02:25:27.992Z,15.10
2017-06-05T02:28:15.803Z,15.10
2017-06-05T02:30:49.787Z,15.10
2017-06-05T02:33:23.904Z,15.10
2017-06-05T02:35:57.902Z,15.10
2017-06-05T02:38:31.836Z,15.10
2017-06-05T02:41:07.673Z,15.20
2017-06-05T02:43:41.688Z,15.20
2017-06-05T02:46:15.709Z,15.20
2017-06-05T02:48:49.894Z,15.20
2017-06-05T02:51:23.959Z,15.20
2017-06-05T02:53:58.073Z,15.20
2017-06-05T02:56:33.465Z,15.30
2017-06-05T02:59:11.437Z,15.30
2017-06-05T03:01:42.713Z,15.30
2017-06-05T03:04:16.347Z,15.30
2017-06-05T03:06:50.208Z,15.30
2017-06-05T03:09:21.645Z,15.30
2017-06-05T03:11:55.243Z,15.30
2017-06-05T03:14:29.365Z,15.40
2017-06-05T03:17:06.137Z,15.50
2017-06-05T03:19:37.689Z,15.50
2017-06-05T03:22:08.788Z,15.40
2017-06-05T03:24:39.916Z,15.30
2017-06-05T03:27:13.461Z,15.40
2017-06-05T03:29:47.585Z,15.40
2017-06-05T03:32:21.208Z,15.40
2017-06-05T03:34:52.642Z,15.30
2017-06-05T03:37:23.635Z,15.30
2017-06-05T03:39:54.752Z,15.20
2017-06-05T03:42:29.364Z,15.30
2017-06-05T03:45:00.787Z,15.30
2017-06-05T03:47:34.535Z,15.30
2017-06-05T03:50:08.372Z,15.40
2017-06-05T03:52:42.308Z,15.30
2017-06-05T03:55:16.136Z,15.20
2017-06-05T03:57:47.328Z,15.20
2017-06-05T04:00:20.903Z,15.20
2017-06-05T04:02:55.029Z,15.30
2017-06-05T04:05:27.944Z,15.30
2017-06-05T04:08:05.389Z,15.30
2017-06-05T04:10:39.523Z,15.30
2017-06-05T04:13:13.448Z,15.40
2017-06-05T04:15:47.571Z,15.40
2017-06-05T04:18:21.403Z,15.40
2017-06-05T04:20:55.244Z,15.50
2017-06-05T04:23:29.288Z,15.50
2017-06-05T04:26:03.312Z,15.50
2017-06-05T04:28:36.523Z,15.60
2017-06-05T04:31:12.519Z,15.60
2017-06-05T04:33:46.438Z,15.60
2017-06-05T04:36:20.385Z,15.60
2017-06-05T04:38:53.608Z,15.50
2017-06-05T04:41:27.631Z,15.50
2017-06-05T04:44:00.861Z,15.50
2017-06-05T04:46:32.107Z,15.60
2017-06-05T04:49:05.707Z,15.60
2017-06-05T04:51:37.155Z,15.60
2017-06-05T04:54:10.966Z,15.60
2017-06-05T04:56:45.948Z,15.60
2017-06-05T04:59:20.127Z,15.60
2017-06-05T05:01:54.841Z,15.70
2017-06-05T05:04:28.760Z,15.60
2017-06-05T05:07:02.891Z,15.60
2017-06-05T05:09:36.795Z,15.50
2017-06-05T05:12:08.263Z,15.60
2017-06-05T05:14:41.763Z,15.50
2017-06-05T05:17:16.056Z,15.60
2017-06-05T05:19:49.679Z,15.60
2017-06-05T05:22:23.835Z,15.70
2017-06-05T05:24:57.836Z,15.70
2017-06-05T05:27:31.771Z,15.70
2017-06-05T05:30:13.412Z,15.70
2017-06-05T05:32:46.664Z,15.70
2017-06-05T05:35:19.881Z,15.80
2017-06-05T05:37:53.917Z,15.80
2017-06-05T05:40:38.687Z,15.80
2017-06-05T05:43:12.780Z,15.80
2017-06-05T05:45:47.698Z,15.90
2017-06-05T05:48:21.919Z,15.90
2017-06-05T05:50:59.524Z,15.90
2017-06-05T05:53:33.720Z,16.00
2017-06-05T05:56:07.633Z,16.00
2017-06-05T05:58:41.683Z,16.00
2017-06-05T06:01:16.756Z,16.00
2017-06-05T06:03:50.828Z,16.10
2017-06-05T06:06:25.037Z,16.10
2017-06-05T06:08:58.461Z,16.10
2017-06-05T06:11:32.418Z,16.10
2017-06-05T06:14:10.348Z,16.20
2017-06-05T06:16:49.352Z,16.20
2017-06-05T06:19:33.875Z,16.20
2017-06-05T06:22:08.691Z,16.20
2017-06-05T06:24:48.667Z,16.20
2017-06-05T06:27:22.159Z,16.20
2017-06-05T06:29:55.791Z,16.20
2017-06-05T06:32:23.349Z,16.20
2017-06-05T06:34:50.964Z,16.20
2017-06-05T06:37:18.535Z,16.30
2017-06-05T06:39:46.437Z,16.30
2017-06-05T06:42:14.053Z,16.30
2017-06-05T06:44:41.607Z,16.30
2017-06-05T06:47:22.161Z,16.40
2017-06-05T06:49:49.720Z,16.50
2017-06-05T06:52:30.023Z,16.50
2017-06-05T06:58:03.156Z,16.50
2017-06-05T07:00:30.720Z,16.60
2017-06-05T07:05:51.252Z,16.60
2017-06-05T07:08:18.842Z,16.50
2017-06-05T07:10:46.674Z,16.60
2017-06-05T07:13:14.282Z,16.60
2017-06-05T07:15:41.886Z,16.50
2017-06-05T07:18:09.489Z,16.50
2017-06-05T07:20:37.163Z,16.50
2017-06-05T07:23:04.807Z,16.50
2017-06-05T07:25:32.434Z,16.40
2017-06-05T07:28:00.167Z,16.40
2017-06-05T07:30:27.760Z,16.30
2017-06-05T07:32:55.395Z,16.40
2017-06-05T07:35:22.994Z,16.40
2017-06-05T07:37:50.653Z,16.50
2017-06-05T07:40:18.233Z,16.50
2017-06-05T07:42:45.823Z,16.60
2017-06-05T07:45:13.411Z,16.70
2017-06-05T07:47:41.091Z,16.60
2017-06-05T07:50:08.679Z,16.70
2017-06-05T07:52:36.272Z,16.60
2017-06-05T07:55:06.915Z,16.70
2017-06-05T07:57:34.501Z,16.70
2017-06-05T08:00:02.109Z,16.70
2017-06-05T08:02:29.728Z,16.60
2017-06-05T08:05:10.783Z,16.40
2017-06-05T08:07:38.347Z,16.40
2017-06-05T08:10:05.931Z,16.50
2017-06-05T08:12:33.491Z,16.60
2017-06-05T08:15:01.083Z,16.60
2017-06-05T08:17:28.646Z,16.70
2017-06-05T08:19:56.229Z,16.60
2017-06-05T08:22:23.817Z,16.70
2017-06-05T08:24:51.392Z,16.70
2017-06-05T08:27:18.953Z,16.70
2017-06-05T08:29:46.520Z,16.70
2017-06-05T08:32:14.103Z,16.60
2017-06-05T08:34:41.686Z,16.60
2017-06-05T08:37:09.468Z,16.70
2017-06-05T08:39:37.302Z,16.70
2017-06-05T08:42:04.887Z,16.70
2017-06-05T08:44:32.451Z,16.70
2017-06-05T08:47:00.164Z,16.70
2017-06-05T08:49:27.736Z,16.70
2017-06-05T08:51:55.489Z,16.70
2017-06-05T08:54:23.087Z,16.60
2017-06-05T08:56:50.734Z,16.60
2017-06-05T08:59:18.317Z,16.50
2017-06-05T09:01:45.932Z,16.50
2017-06-05T09:04:13.495Z,16.60
2017-06-05T09:06:41.064Z,16.70
2017-06-05T09:09:08.651Z,16.70
2017-06-05T09:11:36.227Z,16.70
2017-06-05T09:14:03.855Z,16.80
2017-06-05T09:16:31.541Z,16.80
2017-06-05T09:18:59.155Z,16.80
2017-06-05T09:21:26.892Z,16.90
2017-06-05T09:24:02.824Z,16.80
2017-06-05T09:26:30.399Z,16.90
2017-06-05T09:28:58.012Z,17.00
2017-06-05T09:31:31.640Z,17.00
2017-06-05T09:33:59.251Z,17.10
2017-06-05T09:39:26.151Z,17.30
2017-06-05T09:41:53.729Z,17.40
2017-06-05T09:44:21.397Z,17.40
2017-06-05T09:46:52.387Z,17.40
2017-06-05T09:49:19.967Z,17.50
2017-06-05T09:51:53.616Z,17.60
2017-06-05T09:54:21.204Z,17.70
2017-06-05T09:56:48.799Z,17.60
2017-06-05T09:59:16.368Z,17.60
2017-06-05T10:01:44.034Z,17.50
2017-06-05T10:04:11.653Z,17.40
2017-06-05T10:06:39.244Z,17.50
2017-06-05T10:09:06.822Z,17.50
2017-06-05T10:11:34.388Z,17.50
2017-06-05T10:14:01.953Z,17.40
2017-06-05T10:16:29.547Z,17.50
2017-06-05T10:18:57.163Z,17.60
2017-06-05T10:21:24.728Z,17.60
2017-06-05T10:23:52.303Z,17.50
2017-06-05T10:26:20.083Z,17.50
2017-06-05T10:28:47.667Z,17.50
2017-06-05T10:31:15.231Z,17.50
2017-06-05T10:33:42.839Z,17.40
2017-06-05T10:36:10.404Z,17.50
2017-06-05T10:38:37.997Z,17.50
2017-06-05T10:41:05.588Z,17.50
2017-06-05T10:43:33.179Z,17.50
2017-06-05T10:46:00.784Z,17.60
2017-06-05T10:48:28.396Z,17.70
2017-06-05T10:50:55.981Z,17.60
2017-06-05T10:53:23.580Z,17.60
2017-06-05T10:55:51.168Z,17.50
2017-06-05T10:58:18.822Z,17.60
2017-06-05T11:00:46.416Z,17.70
2017-06-05T11:03:14.003Z,17.80
2017-06-05T11:05:41.601Z,17.90
2017-06-05T11:08:09.162Z,17.80
2017-06-05T11:10:36.759Z,17.90
2017-06-05T11:13:04.325Z,17.90
2017-06-05T11:15:31.917Z,17.90
2017-06-05T11:17:59.507Z,17.90
2017-06-05T11:20:27.082Z,18.00
2017-06-05T11:22:54.655Z,18.10
2017-06-05T11:25:22.244Z,18.20
2017-06-05T11:27:49.820Z,18.10
2017-06-05T11:30:17.436Z,18.00
2017-06-05T11:32:45.607Z,18.00
2017-06-05T11:35:15.150Z,18.10
2017-06-05T11:37:42.756Z,18.10
2017-06-05T11:40:10.335Z,18.10
2017-06-05T11:42:37.923Z,18.10
2017-06-05T11:45:05.504Z,18.10
2017-06-05T11:47:34.464Z,18.00
2017-06-05T11:50:02.079Z,18.00
2017-06-05T11:52:29.696Z,18.00
2017-06-05T11:54:57.271Z,18.10
2017-06-05T11:57:24.868Z,18.20
2017-06-05T11:59:52.469Z,18.30
2017-06-05T12:02:20.079Z,18.20
2017-06-05T12:04:47.647Z,18.30
2017-06-05T12:07:15.260Z,18.30
2017-06-05T12:09:42.837Z,18.30
2017-06-05T12:12:10.410Z,18.30
2017-06-05T12:14:37.980Z,18.20
2017-06-05T12:17:05.542Z,18.10
2017-06-05T12:19:33.123Z,18.20
2017-06-05T12:22:00.696Z,18.20
2017-06-05T12:24:28.268Z,18.40
2017-06-05T12:26:55.851Z,18.50
2017-06-05T12:29:23.456Z,18.60
2017-06-05T12:31:51.039Z,18.80
2017-06-05T12:34:18.634Z,19.00
2017-06-05T12:36:46.213Z,19.10
2017-06-05T12:39:13.793Z,19.30
2017-06-05T12:41:41.367Z,19.30
2017-06-05T12:44:08.951Z,19.30
2017-06-05T12:46:36.521Z,19.30
2017-06-05T12:49:04.105Z,19.30
2017-06-05T12:51:31.676Z,19.30
2017-06-05T12:53:59.319Z,19.40
2017-06-05T12:56:26.889Z,19.50
2017-06-05T12:58:54.528Z,19.60
2017-06-05T13:01:22.108Z,19.70
2017-06-05T13:03:49.678Z,19.60
2017-06-05T13:06:17.255Z,19.60
2017-06-05T13:08:44.852Z,19.60
2017-06-05T13:11:12.475Z,19.50
2017-06-05T13:13:40.043Z,19.50
2017-06-05T13:16:07.631Z,19.60
2017-06-05T13:18:35.209Z,19.70
2017-06-05T13:21:02.811Z,19.70
2017-06-05T13:23:30.388Z,19.70
2017-06-05T13:25:57.989Z,19.70
2017-06-05T13:28:25.561Z,19.80
2017-06-05T13:30:53.409Z,19.90
2017-06-05T13:33:21.090Z,20.00
2017-06-05T13:35:48.689Z,20.00
2017-06-05T13:38:23.588Z,19.90
2017-06-05T13:41:10.618Z,19.80
2017-06-05T13:43:45.289Z,19.70
2017-06-05T13:46:29.697Z,19.90
2017-06-05T13:49:17.336Z,20.00
2017-06-05T13:51:55.157Z,20.00
2017-06-05T13:54:37.799Z,20.00
2017-06-05T14:00:04.926Z,20.10
2017-06-05T14:02:40.738Z,20.30
2017-06-05T14:05:23.357Z,20.30
2017-06-05T14:08:07.918Z,20.30
2017-06-05T14:10:52.157Z,20.40
2017-06-05T14:13:38.592Z,20.50
2017-06-05T14:16:22.735Z,20.60
2017-06-05T14:18:50.313Z,20.70
2017-06-05T14:21:17.879Z,20.90
2017-06-05T14:23:45.518Z,21.00
2017-06-05T14:26:13.087Z,21.00
2017-06-05T14:28:40.682Z,21.10
2017-06-05T14:31:08.272Z,21.30
2017-06-05T14:33:35.867Z,21.30
2017-06-05T14:36:03.812Z,21.30
2017-06-05T14:38:31.489Z,21.40
2017-06-05T14:40:59.069Z,21.30
2017-06-05T14:43:26.693Z,21.40
2017-06-05T14:45:54.294Z,21.40
2017-06-05T14:48:21.861Z,21.40
2017-06-05T14:50:49.440Z,21.30
2017-06-05T14:53:17.000Z,21.40
2017-06-05T14:55:44.600Z,21.50
2017-06-05T14:58:12.323Z,21.60
2017-06-05T15:00:39.911Z,21.70
2017-06-05T15:03:07.467Z,21.80
2017-06-05T15:05:35.052Z,21.80
2017-06-05T15:08:02.704Z,21.90
2017-06-05T15:10:30.327Z,22.00
2017-06-05T15:12:58.040Z,21.90
2017-06-05T15:15:25.696Z,22.00
2017-06-05T15:17:53.270Z,21.90
2017-06-05T15:20:20.880Z,21.90
2017-06-05T15:22:58.360Z,21.90
2017-06-05T15:25:26.081Z,21.90
2017-06-05T15:27:54.955Z,21.90
2017-06-05T15:30:22.619Z,21.90
2017-06-05T15:32:50.319Z,21.90
2017-06-05T15:35:17.967Z,22.00
2017-06-05T15:37:45.635Z,22.00
2017-06-05T15:40:14.974Z,22.10
2017-06-05T15:42:43.657Z,22.10
2017-06-05T15:45:11.237Z,22.10
2017-06-05T15:47:38.884Z,22.20
2017-06-05T15:50:06.614Z,22.20
2017-06-05T15:52:34.199Z,22.20
2017-06-05T15:55:01.769Z,22.10
2017-06-05T15:57:29.347Z,22.00
2017-06-05T15:59:56.941Z,21.90
2017-06-05T16:02:24.527Z,21.90
2017-06-05T16:04:52.082Z,21.80
2017-06-05T16:07:19.699Z,21.50
2017-06-05T16:09:47.376Z,21.50
2017-06-05T16:12:14.948Z,21.50
2017-06-05T16:14:43.743Z,21.40
2017-06-05T16:17:11.309Z,21.30
2017-06-05T16:19:39.829Z,21.30
2017-06-05T16:22:07.416Z,21.20
2017-06-05T16:24:35.020Z,21.20
2017-06-05T16:27:02.596Z,21.00
2017-06-05T16:29:30.217Z,21.00
2017-06-05T16:31:57.802Z,20.90
2017-06-05T16:34:25.417Z,20.80
2017-06-05T16:36:58.722Z,20.90
2017-06-05T16:39:26.309Z,21.00
2017-06-05T16:41:53.869Z,21.00
2017-06-05T16:44:21.479Z,21.10
2017-06-05T16:46:59.488Z,21.10
2017-06-05T16:49:33.441Z,21.10
2017-06-05T16:52:07.063Z,21.10
2017-06-05T16:54:41.050Z,21.00
2017-06-05T16:57:16.151Z,20.90
2017-06-05T16:59:58.400Z,20.90
2017-06-05T17:02:32.388Z,20.90
2017-06-05T17:05:06.132Z,20.80
2017-06-05T17:07:40.888Z,20.70
2017-06-05T17:10:16.025Z,20.70
2017-06-05T17:12:47.869Z,20.70
2017-06-05T17:15:26.044Z,20.80
2017-06-05T17:18:01.883Z,20.80
2017-06-05T17:20:33.122Z,20.70
2017-06-05T17:23:04.172Z,20.70
2017-06-05T17:25:37.691Z,20.70
2017-06-05T17:28:13.479Z,20.70
2017-06-05T17:33:44.543Z,20.60
2017-06-05T17:36:19.512Z,20.70
2017-06-05T17:38:54.030Z,20.70
2017-06-05T17:41:28.107Z,20.60
2017-06-05T17:47:08.278Z,20.60
2017-06-05T17:52:41.534Z,20.70
2017-06-05T17:55:15.979Z,20.70
2017-06-05T17:57:49.465Z,20.80
2017-06-05T18:00:25.234Z,20.80
2017-06-05T18:03:06.350Z,20.90
2017-06-05T18:08:30.529Z,21.00
2017-06-05T18:11:01.453Z,21.10
2017-06-05T18:16:45.320Z,21.10
2017-06-05T18:22:25.443Z,21.00
2017-06-05T18:27:42.276Z,21.00
2017-06-05T18:30:09.878Z,20.80
2017-06-05T18:32:37.598Z,20.80
2017-06-05T18:35:06.069Z,20.80
2017-06-05T18:37:33.800Z,20.60
2017-06-05T18:40:01.444Z,20.60
2017-06-05T18:42:29.023Z,20.50
2017-06-05T18:44:56.630Z,20.50
2017-06-05T18:47:24.196Z,20.40
2017-06-05T18:49:51.803Z,20.40
2017-06-05T18:52:19.388Z,20.40
2017-06-05T18:54:46.976Z,20.40
2017-06-05T18:57:14.561Z,20.30
2017-06-05T18:59:42.165Z,20.30
2017-06-05T19:02:09.793Z,20.30
2017-06-05T19:04:37.393Z,20.20
2017-06-05T19:07:05.205Z,20.10
2017-06-05T19:09:32.860Z,20.10
2017-06-05T19:12:00.524Z,20.10
2017-06-05T19:14:28.154Z,20.10
2017-06-05T19:16:56.670Z,20.00
2017-06-05T19:19:24.237Z,20.00
2017-06-05T19:21:51.857Z,20.00
2017-06-05T19:24:19.524Z,20.10
2017-06-05T19:26:53.667Z,20.10
2017-06-05T19:29:27.640Z,20.10
2017-06-05T19:32:01.764Z,20.10
2017-06-05T19:34:32.993Z,20.00
2017-06-05T19:37:06.563Z,20.00
2017-06-05T19:39:35.726Z,19.90
2017-06-05T19:42:09.701Z,19.90
2017-06-05T19:47:33.314Z,19.90
2017-06-05T19:50:04.351Z,19.90
2017-06-05T19:52:42.172Z,19.90
2017-06-05T19:55:13.312Z,19.90
2017-06-05T19:57:49.036Z,19.90
2017-06-05T20:03:23.301Z,19.80
2017-06-05T20:05:54.392Z,19.80
2017-06-05T20:08:34.496Z,19.70
2017-06-05T20:11:11.848Z,19.70
2017-06-05T20:13:49.182Z,19.60
2017-06-05T20:16:27.296Z,19.50
2017-06-05T20:19:02.932Z,19.30
2017-06-05T20:21:34.155Z,19.30
2017-06-05T20:24:07.783Z,19.30
2017-06-05T20:26:41.430Z,19.20
2017-06-05T20:29:15.213Z,19.20
2017-06-05T20:31:48.917Z,19.20
2017-06-05T20:34:20.148Z,19.10
2017-06-05T20:36:53.925Z,19.00
2017-06-05T20:39:27.469Z,19.00
2017-06-05T20:42:18.043Z,18.90
2017-06-05T20:44:52.274Z,18.80
2017-06-05T20:47:26.084Z,18.80
2017-06-05T20:49:59.977Z,18.80
2017-06-05T20:52:33.808Z,18.70
2017-06-05T20:55:07.854Z,18.60
2017-06-05T20:57:41.808Z,18.50
2017-06-05T21:00:15.832Z,18.40
2017-06-05T21:02:47.131Z,18.30
2017-06-05T21:05:20.905Z,18.30
2017-06-05T21:07:52.123Z,18.20
2017-06-05T21:10:25.794Z,18.20
2017-06-05T21:12:59.928Z,18.20
2017-06-05T21:15:34.024Z,18.10
2017-06-05T21:18:07.880Z,18.00
2017-06-05T21:20:39.146Z,18.00
2017-06-05T21:23:16.501Z,18.00
2017-06-05T21:25:47.940Z,17.90
2017-06-05T21:28:19.040Z,17.90
2017-06-05T21:30:52.878Z,17.90
2017-06-05T21:33:27.151Z,17.90
2017-06-05T21:36:01.008Z,17.80
2017-06-05T21:38:31.941Z,17.80
2017-06-05T21:41:09.604Z,17.70
2017-06-05T21:46:40.252Z,17.70
2017-06-05T21:49:14.177Z,17.70
2017-06-05T21:51:48.011Z,17.70
2017-06-05T21:54:21.736Z,17.60
2017-06-05T21:56:55.916Z,17.60
2017-06-05T21:59:29.647Z,17.50
2017-06-05T22:02:03.543Z,17.50
2017-06-05T22:04:41.462Z,17.40
2017-06-05T22:07:16.436Z,17.40
2017-06-05T22:09:54.324Z,17.40
2017-06-05T22:12:28.287Z,17.40
2017-06-05T22:14:59.587Z,17.30
2017-06-05T22:17:33.252Z,17.30
2017-06-05T22:20:07.153Z,17.30
2017-06-05T22:22:41.417Z,17.30
2017-06-05T22:25:13.072Z,17.30
2017-06-05T22:27:50.424Z,17.30
2017-06-05T22:30:30.724Z,17.20
2017-06-05T22:32:58.393Z,17.20
2017-06-05T22:35:25.991Z,17.10
2017-06-05T22:37:53.564Z,17.00
2017-06-05T22:40:21.152Z,16.90
2017-06-05T22:42:48.755Z,16.90
2017-06-05T22:45:16.356Z,16.90
2017-06-05T22:47:43.951Z,16.80
2017-06-05T22:50:11.580Z,16.80
2017-06-05T22:52:39.288Z,16.80
2017-06-05T22:57:59.616Z,16.80
2017-06-05T23:00:27.216Z,16.80
2017-06-05T23:02:54.805Z,16.70
2017-06-05T23:05:22.574Z,16.60
2017-06-05T23:07:50.231Z,16.60
2017-06-05T23:10:17.928Z,16.60
2017-06-05T23:12:45.505Z,16.60
2017-06-05T23:15:13.085Z,16.60
2017-06-05T23:17:40.700Z,16.60
2017-06-05T23:20:08.284Z,16.60
2017-06-05T23:22:35.888Z,16.60
2017-06-05T23:25:03.467Z,16.60
2017-06-05T23:27:31.058Z,16.50
2017-06-05T23:29:58.632Z,16.50
2017-06-05T23:32:33.302Z,16.50
2017-06-05T23:35:00.891Z,16.40
2017-06-05T23:37:28.499Z,16.40
2017-06-05T23:39:56.072Z,16.40
2017-06-05T23:42:23.674Z,16.40
2017-06-05T23:44:51.296Z,16.40
2017-06-05T23:47:18.876Z,16.40
2017-06-05T23:49:46.570Z,16.30
2017-06-05T23:52:14.145Z,16.40
2017-06-05T23:54:41.755Z,16.30
